METAR Data
IDs: Format: Raw Decoded Include TAF

Data at: 0729 UTC 01 Aug 2021

LOWK 010720Z 07003KT 030V150 9999 SHRA FEW009 BKN050 FEW050CB 19/18 Q1007 TEMPO NSW